createdAt,value
2023-02-17T00:01:34.305Z,77.50
2023-02-17T00:04:03.370Z,73.93
2023-02-17T00:06:33.586Z,77.03
2023-02-17T00:09:02.561Z,78.10
2023-02-17T00:11:31.549Z,77.87
2023-02-17T00:14:08.628Z,79.57
2023-02-17T00:16:44.695Z,77.40
2023-02-17T00:19:44.811Z,77.80
2023-02-17T00:22:16.915Z,72.17
2023-02-17T00:24:45.644Z,79.53
2023-02-17T00:27:14.147Z,74.67
2023-02-17T00:29:42.624Z,77.47
2023-02-17T00:32:25.141Z,74.53
2023-02-17T00:34:57.475Z,76.20
2023-02-17T00:37:32.194Z,72.83
2023-02-17T00:40:00.709Z,69.83
2023-02-17T00:42:29.223Z,75.37
2023-02-17T00:44:57.896Z,70.97
2023-02-17T00:47:26.593Z,71.83
2023-02-17T00:49:56.443Z,73.67
2023-02-17T00:52:27.137Z,73.30
2023-02-17T00:54:57.828Z,74.60
2023-02-17T00:57:34.653Z,75.43
2023-02-17T01:00:06.632Z,73.13
2023-02-17T01:02:41.470Z,72.63
2023-02-17T01:05:13.137Z,73.87
2023-02-17T01:07:43.190Z,69.00
2023-02-17T01:10:12.233Z,73.33
2023-02-17T01:12:40.883Z,71.47
2023-02-17T01:15:10.364Z,76.70
2023-02-17T01:17:39.198Z,74.53
2023-02-17T01:20:09.362Z,71.03
2023-02-17T01:22:40.240Z,81.07
2023-02-17T01:25:10.522Z,69.50
2023-02-17T01:27:39.458Z,69.93
2023-02-17T01:30:09.140Z,71.10
2023-02-17T01:32:38.827Z,73.40
2023-02-17T01:35:07.979Z,68.70
2023-02-17T01:37:36.893Z,68.63
2023-02-17T01:40:06.752Z,70.77
2023-02-17T01:42:36.789Z,70.37
2023-02-17T01:45:39.440Z,67.03
2023-02-17T01:48:13.072Z,72.30
2023-02-17T01:50:45.759Z,73.10
2023-02-17T01:53:19.766Z,73.90
2023-02-17T01:55:49.441Z,70.07
2023-02-17T01:58:22.375Z,72.23
2023-02-17T02:00:54.014Z,75.53
2023-02-17T02:03:22.838Z,71.43
2023-02-17T02:05:51.934Z,71.87
2023-02-17T02:08:20.848Z,71.87
2023-02-17T02:10:49.372Z,72.20
2023-02-17T02:13:19.455Z,70.70
2023-02-17T02:15:59.337Z,71.63
2023-02-17T02:18:44.842Z,78.60
2023-02-17T02:22:05.591Z,71.00
2023-02-17T02:24:48.148Z,75.67
2023-02-17T02:27:45.975Z,74.33
2023-02-17T02:30:46.391Z,72.10
2023-02-17T02:33:32.283Z,70.40
2023-02-17T02:36:08.060Z,75.30
2023-02-17T02:38:42.700Z,67.33
2023-02-17T02:41:16.736Z,68.23
2023-02-17T02:43:45.945Z,72.13
2023-02-17T02:46:14.681Z,68.60
2023-02-17T02:48:45.251Z,76.03
2023-02-17T02:51:32.596Z,66.53
2023-02-17T02:54:28.280Z,74.27
2023-02-17T02:57:09.485Z,69.60
2023-02-17T02:59:48.848Z,67.77
2023-02-17T03:02:24.039Z,71.97
2023-02-17T03:05:01.246Z,64.77
2023-02-17T03:07:35.280Z,66.50
2023-02-17T03:10:04.072Z,68.40
2023-02-17T03:12:33.038Z,64.57
2023-02-17T03:15:05.910Z,65.77
2023-02-17T03:17:35.188Z,67.00
2023-02-17T03:20:06.772Z,67.77
2023-02-17T03:22:37.997Z,70.17
2023-02-17T03:25:07.414Z,68.90
2023-02-17T03:27:36.068Z,67.23
2023-02-17T03:30:05.211Z,64.03
2023-02-17T03:32:33.814Z,64.60
2023-02-17T03:35:02.598Z,72.40
2023-02-17T03:37:32.862Z,70.63
2023-02-17T03:40:01.667Z,71.63
2023-02-17T03:42:30.380Z,74.20
2023-02-17T03:44:59.076Z,72.07
2023-02-17T03:47:27.823Z,69.37
2023-02-17T03:49:56.385Z,67.53
2023-02-17T03:52:25.015Z,73.57
2023-02-17T03:54:54.944Z,69.77
2023-02-17T03:57:23.564Z,74.00
2023-02-17T03:59:52.278Z,68.33
2023-02-17T04:02:20.883Z,69.93
2023-02-17T04:04:49.585Z,65.50
2023-02-17T04:07:18.098Z,66.90
2023-02-17T04:09:46.873Z,70.57
2023-02-17T04:12:16.956Z,65.97
2023-02-17T04:14:45.485Z,66.80
2023-02-17T04:17:14.104Z,65.20
2023-02-17T04:19:42.632Z,66.50
2023-02-17T04:22:11.197Z,73.37
2023-02-17T04:24:40.208Z,72.23
2023-02-17T04:27:09.151Z,74.63
2023-02-17T04:29:39.078Z,68.43
2023-02-17T04:32:07.634Z,72.33
2023-02-17T04:34:36.442Z,70.47
2023-02-17T04:37:05.068Z,70.83
2023-02-17T04:39:33.862Z,73.40
2023-02-17T04:42:02.405Z,72.33
2023-02-17T04:44:30.900Z,73.93
2023-02-17T04:47:01.056Z,70.57
2023-02-17T04:49:29.644Z,73.87
2023-02-17T04:51:58.351Z,70.77
2023-02-17T04:54:35.737Z,70.47
2023-02-17T04:57:04.318Z,73.27
2023-02-17T04:59:32.830Z,77.07
2023-02-17T05:02:03.001Z,71.40
2023-02-17T05:04:31.972Z,72.40
2023-02-17T05:07:00.508Z,72.87
2023-02-17T05:09:29.599Z,70.33
2023-02-17T05:11:58.145Z,74.80
2023-02-17T05:14:26.925Z,68.80
2023-02-17T05:16:55.669Z,73.13
2023-02-17T05:19:25.722Z,71.23
2023-02-17T05:21:54.440Z,71.17
2023-02-17T05:24:22.986Z,71.90
2023-02-17T05:26:51.520Z,71.80
2023-02-17T05:29:20.230Z,65.28
2023-02-17T05:31:49.317Z,71.67
2023-02-17T05:34:18.314Z,78.10
2023-02-17T05:36:48.531Z,70.57
2023-02-17T05:39:17.244Z,73.57
2023-02-17T05:41:45.911Z,69.93
2023-02-17T05:44:14.487Z,70.73
2023-02-17T05:46:43.123Z,68.40
2023-02-17T05:49:12.240Z,76.93
2023-02-17T05:51:40.860Z,62.75
2023-02-17T05:54:11.054Z,64.70
2023-02-17T05:56:39.704Z,69.27
2023-02-17T05:59:08.548Z,68.37
2023-02-17T06:01:37.933Z,69.20
2023-02-17T06:04:06.700Z,70.70
2023-02-17T06:06:35.264Z,73.93
2023-02-17T06:09:03.820Z,74.33
2023-02-17T06:11:34.055Z,86.10
2023-02-17T06:14:02.932Z,82.53
2023-02-17T06:16:34.727Z,78.10
2023-02-17T06:19:05.410Z,75.73
2023-02-17T06:21:34.103Z,73.90
2023-02-17T06:24:02.736Z,80.67
2023-02-17T06:26:32.781Z,89.87
2023-02-17T06:29:01.722Z,108.20
2023-02-17T06:31:30.458Z,111.33
2023-02-17T06:33:59.112Z,87.53
2023-02-17T06:36:27.775Z,72.57
2023-02-17T06:38:56.380Z,73.90
2023-02-17T06:41:24.909Z,68.73
2023-02-17T06:43:54.881Z,70.83
2023-02-17T06:46:23.488Z,72.13
2023-02-17T06:48:52.184Z,73.97
2023-02-17T06:51:20.701Z,66.57
2023-02-17T06:53:49.737Z,67.00
2023-02-17T06:56:20.884Z,68.47
2023-02-17T06:58:49.689Z,65.40
2023-02-17T07:01:21.881Z,64.68
2023-02-17T07:03:50.845Z,65.47
2023-02-17T07:06:20.025Z,64.17
2023-02-17T07:08:48.537Z,66.87
2023-02-17T07:11:17.871Z,63.00
2023-02-17T07:13:46.679Z,65.33
2023-02-17T07:16:16.410Z,56.10
2023-02-17T07:18:46.710Z,63.47
2023-02-17T07:21:15.332Z,63.17
2023-02-17T07:23:43.980Z,59.90
2023-02-17T07:26:13.729Z,57.97
2023-02-17T07:28:42.928Z,61.27
2023-02-17T07:31:15.106Z,62.67
2023-02-17T07:33:45.783Z,62.63
2023-02-17T07:36:16.681Z,57.00
2023-02-17T07:38:45.530Z,63.33
2023-02-17T07:41:16.918Z,64.83
2023-02-17T07:43:46.348Z,58.80
2023-02-17T07:46:15.358Z,56.03
2023-02-17T07:48:45.315Z,59.47
2023-02-17T07:51:16.504Z,57.97
2023-02-17T07:53:45.180Z,62.50
2023-02-17T07:56:15.570Z,57.87
2023-02-17T07:58:45.732Z,57.63
2023-02-17T08:01:16.095Z,58.40
2023-02-17T08:03:47.679Z,51.40
2023-02-17T08:06:18.600Z,60.73
2023-02-17T08:09:04.861Z,54.23
2023-02-17T08:11:52.619Z,57.60
2023-02-17T08:14:22.687Z,54.73
2023-02-17T08:16:51.438Z,56.97
2023-02-17T08:19:21.714Z,53.30
2023-02-17T08:21:50.794Z,57.23
2023-02-17T08:24:19.877Z,58.37
2023-02-17T08:26:48.812Z,56.20
2023-02-17T08:29:17.901Z,51.47
2023-02-17T08:31:46.582Z,55.70
2023-02-17T08:34:15.630Z,51.37
2023-02-17T08:36:45.701Z,58.83
2023-02-17T08:39:16.269Z,53.23
2023-02-17T08:41:45.284Z,60.97
2023-02-17T08:44:15.956Z,58.60
2023-02-17T08:46:45.153Z,50.10
2023-02-17T08:49:14.258Z,53.30
2023-02-17T08:51:44.858Z,50.00
2023-02-17T08:54:14.317Z,51.83
2023-02-17T08:56:43.874Z,49.40
2023-02-17T08:59:13.881Z,50.87
2023-02-17T09:01:43.421Z,49.97
2023-02-17T09:04:14.884Z,49.90
2023-02-17T09:06:47.402Z,51.30
2023-02-17T09:09:18.696Z,54.70
2023-02-17T09:11:47.765Z,51.10
2023-02-17T09:14:16.780Z,49.37
2023-02-17T09:16:45.542Z,48.73
2023-02-17T09:19:14.071Z,46.60
2023-02-17T09:21:42.753Z,52.00
2023-02-17T09:24:16.015Z,48.83
2023-02-17T09:26:44.563Z,50.37
2023-02-17T09:29:13.140Z,51.17
2023-02-17T09:31:41.998Z,51.60
2023-02-17T09:34:11.972Z,52.73
2023-02-17T09:36:42.376Z,54.27
2023-02-17T09:39:14.504Z,49.10
2023-02-17T09:41:47.423Z,46.43
2023-02-17T09:44:23.529Z,47.53
2023-02-17T09:47:02.157Z,53.92
2023-02-17T09:49:35.794Z,44.20
2023-02-17T09:52:10.452Z,42.70
2023-02-17T09:54:48.865Z,46.33
2023-02-17T09:57:21.497Z,45.47
2023-02-17T09:59:55.662Z,48.40
2023-02-17T10:02:29.594Z,51.33
2023-02-17T10:05:03.154Z,54.50
2023-02-17T10:07:38.614Z,53.10
2023-02-17T10:10:13.100Z,51.77
2023-02-17T10:12:47.530Z,53.13
2023-02-17T10:15:21.127Z,50.50
2023-02-17T10:17:56.276Z,52.17
2023-02-17T10:20:27.389Z,50.73
2023-02-17T10:23:01.520Z,51.80
2023-02-17T10:25:56.817Z,52.00
2023-02-17T10:28:36.373Z,57.60
2023-02-17T10:31:07.763Z,55.37
2023-02-17T10:33:39.359Z,56.00
2023-02-17T10:36:14.134Z,57.60
2023-02-17T10:38:51.944Z,48.92
2023-02-17T10:41:28.000Z,54.83
2023-02-17T10:43:57.227Z,56.53
2023-02-17T10:46:30.763Z,56.13
2023-02-17T10:49:01.152Z,60.50
2023-02-17T10:51:32.226Z,64.77
2023-02-17T10:54:05.089Z,55.13
2023-02-17T10:56:39.948Z,56.73
2023-02-17T10:59:14.984Z,53.53
2023-02-17T11:01:44.062Z,53.00
2023-02-17T11:04:14.322Z,53.53
2023-02-17T11:06:45.713Z,51.13
2023-02-17T11:09:22.028Z,54.03
2023-02-17T11:11:59.334Z,52.80
2023-02-17T11:14:32.544Z,51.65
2023-02-17T11:17:03.816Z,49.70
2023-02-17T11:19:34.900Z,49.10
2023-02-17T11:22:05.394Z,52.40
2023-02-17T11:24:36.495Z,50.93
2023-02-17T11:27:12.390Z,46.65
2023-02-17T11:29:41.152Z,52.17
2023-02-17T11:32:13.964Z,53.10
2023-02-17T11:34:45.144Z,45.88
2023-02-17T11:37:23.915Z,45.97
2023-02-17T11:39:54.735Z,54.30
2023-02-17T11:42:27.101Z,51.77
2023-02-17T11:45:00.079Z,50.50
2023-02-17T11:47:40.329Z,51.00
2023-02-17T11:50:39.001Z,51.97
2023-02-17T11:53:22.378Z,55.47
2023-02-17T11:56:03.567Z,54.67
2023-02-17T11:58:48.120Z,52.30
2023-02-17T12:01:27.860Z,55.97
2023-02-17T12:04:17.588Z,54.20
2023-02-17T12:06:54.267Z,51.40
2023-02-17T12:09:32.723Z,55.37
2023-02-17T12:12:09.633Z,50.47
2023-02-17T12:15:00.522Z,54.50
2023-02-17T12:17:44.430Z,49.47
2023-02-17T12:20:33.209Z,58.57
2023-02-17T12:23:14.185Z,54.30
2023-02-17T12:25:46.615Z,55.97
2023-02-17T12:28:35.844Z,53.03
2023-02-17T12:31:12.089Z,60.03
2023-02-17T12:33:52.090Z,51.77
2023-02-17T12:36:22.533Z,52.00
2023-02-17T12:38:58.616Z,51.07
2023-02-17T12:41:29.788Z,49.40
2023-02-17T12:44:02.587Z,50.43
2023-02-17T12:46:38.067Z,50.07
2023-02-17T12:49:12.765Z,46.97
2023-02-17T12:51:45.632Z,46.07
2023-02-17T12:54:20.304Z,51.07
2023-02-17T12:57:06.430Z,46.20
2023-02-17T12:59:37.286Z,51.55
2023-02-17T13:02:11.859Z,44.47
2023-02-17T13:04:42.190Z,43.73
2023-02-17T13:07:40.740Z,45.63
2023-02-17T13:10:28.869Z,46.40
2023-02-17T13:13:03.592Z,45.77
2023-02-17T13:15:36.017Z,43.30
2023-02-17T13:18:08.477Z,46.83
2023-02-17T13:20:56.155Z,45.73
2023-02-17T13:23:36.782Z,47.93
2023-02-17T13:26:36.114Z,50.03
2023-02-17T13:29:19.823Z,52.50
2023-02-17T13:31:54.357Z,52.07
2023-02-17T13:34:31.929Z,45.33
2023-02-17T13:37:03.361Z,49.10
2023-02-17T13:39:38.243Z,47.30
2023-02-17T13:42:23.198Z,44.07
2023-02-17T13:44:53.406Z,43.50
2023-02-17T13:47:30.305Z,47.27
2023-02-17T13:50:01.348Z,40.70
2023-02-17T13:52:32.263Z,43.07
2023-02-17T13:55:02.436Z,42.43
2023-02-17T13:57:32.703Z,40.67
2023-02-17T14:00:21.608Z,38.25
2023-02-17T14:02:53.134Z,43.83
2023-02-17T14:05:28.708Z,42.77
2023-02-17T14:08:01.783Z,43.37
2023-02-17T14:10:31.037Z,45.00
2023-02-17T14:13:00.197Z,42.90
2023-02-17T14:15:30.235Z,39.97
2023-02-17T14:17:59.120Z,38.83
2023-02-17T14:20:33.806Z,37.33
2023-02-17T14:23:05.343Z,38.00
2023-02-17T14:25:36.698Z,39.23
2023-02-17T14:28:06.282Z,38.30
2023-02-17T14:30:37.874Z,38.63
2023-02-17T14:33:08.500Z,40.23
2023-02-17T14:35:39.628Z,38.00
2023-02-17T14:38:21.633Z,38.63
2023-02-17T14:40:50.996Z,37.40
2023-02-17T14:43:19.612Z,38.33
2023-02-17T14:45:48.220Z,34.67
2023-02-17T14:48:16.937Z,34.73
2023-02-17T14:50:47.922Z,36.50
2023-02-17T14:53:26.198Z,37.03
2023-02-17T14:56:01.154Z,41.47
2023-02-17T14:58:30.934Z,36.87
2023-02-17T15:00:59.669Z,37.87
2023-02-17T15:03:32.694Z,35.50
2023-02-17T15:06:03.368Z,35.80
2023-02-17T15:08:34.888Z,39.10
2023-02-17T15:11:04.077Z,36.23
2023-02-17T15:13:32.876Z,35.97
2023-02-17T15:16:01.842Z,38.00
2023-02-17T15:18:30.450Z,38.53
2023-02-17T15:20:59.112Z,38.03
2023-02-17T15:23:36.098Z,37.27
2023-02-17T15:26:05.025Z,38.30
2023-02-17T15:28:33.931Z,38.97
2023-02-17T15:31:03.473Z,34.67
2023-02-17T15:33:32.143Z,39.73
2023-02-17T15:36:01.815Z,35.73
2023-02-17T15:38:31.893Z,36.37
2023-02-17T15:41:00.412Z,35.87
2023-02-17T15:46:12.481Z,39.57
2023-02-17T15:48:45.274Z,37.80
2023-02-17T15:51:15.415Z,36.67
2023-02-17T15:53:45.640Z,36.70
2023-02-17T15:56:19.057Z,38.07
2023-02-17T15:58:50.341Z,37.20
2023-02-17T16:01:26.141Z,36.73
2023-02-17T16:03:55.312Z,38.37
2023-02-17T16:06:24.204Z,40.00
2023-02-17T16:08:54.525Z,39.17
2023-02-17T16:11:24.898Z,43.47
2023-02-17T16:13:53.508Z,43.03
2023-02-17T16:16:24.800Z,39.50
2023-02-17T16:18:53.707Z,39.07
2023-02-17T16:21:22.711Z,38.37
2023-02-17T16:23:52.765Z,37.67
2023-02-17T16:26:27.351Z,39.47
2023-02-17T16:28:56.038Z,43.40
2023-02-17T16:31:24.810Z,37.40
2023-02-17T16:33:59.678Z,38.40
2023-02-17T16:36:31.546Z,45.10
2023-02-17T16:39:01.640Z,35.10
2023-02-17T16:41:31.725Z,40.77
2023-02-17T16:44:00.468Z,35.57
2023-02-17T16:46:32.060Z,37.10
2023-02-17T16:49:02.437Z,35.67
2023-02-17T16:51:31.473Z,36.53
2023-02-17T16:53:59.999Z,35.17
2023-02-17T16:56:36.877Z,34.37
2023-02-17T16:59:06.346Z,39.50
2023-02-17T17:04:23.236Z,40.10
2023-02-17T17:06:53.072Z,34.93
2023-02-17T17:09:23.840Z,34.23
2023-02-17T17:11:53.964Z,34.33
2023-02-17T17:14:22.513Z,37.00
2023-02-17T17:16:53.767Z,31.40
2023-02-17T17:19:22.828Z,31.37
2023-02-17T17:21:51.593Z,35.17
2023-02-17T17:24:33.692Z,30.63
2023-02-17T17:27:03.730Z,30.90
2023-02-17T17:29:32.505Z,33.00
2023-02-17T17:32:01.891Z,30.50
2023-02-17T17:34:30.944Z,30.70
2023-02-17T17:36:59.794Z,36.07
2023-02-17T17:39:28.807Z,43.70
2023-02-17T17:41:58.886Z,35.97
2023-02-17T17:44:29.038Z,34.13
2023-02-17T17:46:57.816Z,32.90
2023-02-17T17:49:26.797Z,32.63
2023-02-17T17:51:55.662Z,36.80
2023-02-17T17:54:24.216Z,32.00
2023-02-17T17:56:52.893Z,31.60
2023-02-17T17:59:21.453Z,30.53
2023-02-17T18:01:51.673Z,27.73
2023-02-17T18:04:20.405Z,29.37
2023-02-17T18:06:51.936Z,29.57
2023-02-17T18:09:31.799Z,30.20
2023-02-17T18:12:05.119Z,28.30
2023-02-17T18:14:34.104Z,27.83
2023-02-17T18:17:04.233Z,27.70
2023-02-17T18:19:33.875Z,27.00
2023-02-17T18:22:02.817Z,25.93
2023-02-17T18:24:31.863Z,28.53
2023-02-17T18:27:00.468Z,26.77
2023-02-17T18:29:29.592Z,23.80
2023-02-17T18:31:59.525Z,26.80
2023-02-17T18:34:29.564Z,32.77
2023-02-17T18:36:58.541Z,34.43
2023-02-17T18:39:27.399Z,34.73
2023-02-17T18:41:56.158Z,32.20
2023-02-17T18:44:25.021Z,31.37
2023-02-17T18:46:53.619Z,38.00
2023-02-17T18:49:22.244Z,32.33
2023-02-17T18:51:52.311Z,32.23
2023-02-17T18:54:20.893Z,40.33
2023-02-17T18:56:49.515Z,36.97
2023-02-17T18:59:18.160Z,28.83
2023-02-17T19:01:46.890Z,29.50
2023-02-17T19:04:16.162Z,32.00
2023-02-17T19:06:44.881Z,34.07
2023-02-17T19:09:14.918Z,28.60
2023-02-17T19:11:43.483Z,34.90
2023-02-17T19:14:12.600Z,32.70
2023-02-17T19:16:41.165Z,29.07
2023-02-17T19:19:09.734Z,29.33
2023-02-17T19:21:38.344Z,31.07
2023-02-17T19:24:07.258Z,29.93
2023-02-17T19:26:38.280Z,30.97
2023-02-17T19:29:06.827Z,30.07
2023-02-17T19:31:35.731Z,31.90
2023-02-17T19:34:04.613Z,31.83
2023-02-17T19:36:33.269Z,33.13
2023-02-17T19:39:01.796Z,33.93
2023-02-17T19:41:30.497Z,28.17
2023-02-17T19:44:00.505Z,29.53
2023-02-17T19:46:29.052Z,30.63
2023-02-17T19:48:57.713Z,31.57
2023-02-17T19:51:26.910Z,31.87
2023-02-17T19:53:55.534Z,34.13
2023-02-17T19:56:26.235Z,30.43
2023-02-17T19:58:55.245Z,31.60
2023-02-17T20:01:27.124Z,27.60
2023-02-17T20:03:56.548Z,33.03
2023-02-17T20:06:28.369Z,34.10
2023-02-17T20:08:58.730Z,34.47
2023-02-17T20:11:27.997Z,35.80
2023-02-17T20:13:59.491Z,34.50
2023-02-17T20:16:30.696Z,31.83
2023-02-17T20:19:02.075Z,33.33
2023-02-17T20:21:33.869Z,37.97
2023-02-17T20:24:02.867Z,37.17
2023-02-17T20:26:34.076Z,38.77
2023-02-17T20:29:03.370Z,36.13
2023-02-17T20:31:33.505Z,33.00
2023-02-17T20:34:04.061Z,31.67
2023-02-17T20:36:32.921Z,32.37
2023-02-17T20:39:01.773Z,34.53
2023-02-17T20:41:30.673Z,33.70
2023-02-17T20:44:03.024Z,30.77
2023-02-17T20:46:36.799Z,30.10
2023-02-17T20:49:05.322Z,32.40
2023-02-17T20:51:33.827Z,29.90
2023-02-17T20:54:02.606Z,28.53
2023-02-17T20:56:35.715Z,29.00
2023-02-17T20:59:04.971Z,29.70
2023-02-17T21:01:34.140Z,31.30
2023-02-17T21:04:04.431Z,30.03
2023-02-17T21:06:34.707Z,28.33
2023-02-17T21:09:06.155Z,29.37
2023-02-17T21:11:34.957Z,31.23
2023-02-17T21:14:03.540Z,28.20
2023-02-17T21:16:33.334Z,27.30
2023-02-17T21:19:03.544Z,26.73
2023-02-17T21:21:33.503Z,27.13
2023-02-17T21:24:02.160Z,24.47
2023-02-17T21:26:30.684Z,24.80
2023-02-17T21:28:59.258Z,26.13
2023-02-17T21:31:29.132Z,26.60
2023-02-17T21:33:59.216Z,25.17
2023-02-17T21:36:29.661Z,27.33
2023-02-17T21:38:59.236Z,26.10
2023-02-17T21:41:30.457Z,27.07
2023-02-17T21:44:16.606Z,26.93
2023-02-17T21:46:46.638Z,27.33
2023-02-17T21:49:15.520Z,24.73
2023-02-17T21:51:45.634Z,24.03
2023-02-17T21:54:14.505Z,21.83
2023-02-17T21:56:43.234Z,22.93
2023-02-17T21:59:12.958Z,20.27
2023-02-17T22:01:41.551Z,18.57
2023-02-17T22:04:10.479Z,20.30
2023-02-17T22:06:41.314Z,21.00
2023-02-17T22:09:14.758Z,18.60
2023-02-17T22:11:44.610Z,19.57
2023-02-17T22:14:16.009Z,20.90
2023-02-17T22:16:45.525Z,21.57
2023-02-17T22:19:17.008Z,14.70
2023-02-17T22:21:46.640Z,15.67
2023-02-17T22:24:17.356Z,14.43
2023-02-17T22:26:45.888Z,18.87
2023-02-17T22:29:14.574Z,16.93
2023-02-17T22:31:43.502Z,18.00
2023-02-17T22:34:15.610Z,13.93
2023-02-17T22:36:44.246Z,15.77
2023-02-17T22:39:13.010Z,19.10
2023-02-17T22:41:43.345Z,5.87
2023-02-17T22:44:12.443Z,10.07
2023-02-17T22:46:41.027Z,14.33
2023-02-17T22:49:09.664Z,17.73
2023-02-17T22:51:40.566Z,7.90
2023-02-17T22:54:10.271Z,14.33
2023-02-17T22:56:40.572Z,11.83
2023-02-17T22:59:10.512Z,14.83
2023-02-17T23:01:39.262Z,11.53
2023-02-17T23:04:08.140Z,14.13
2023-02-17T23:06:38.671Z,9.00
2023-02-17T23:09:08.487Z,9.83
2023-02-17T23:11:55.084Z,15.60
2023-02-17T23:14:28.571Z,15.77
2023-02-17T23:17:00.920Z,16.80
2023-02-17T23:19:30.515Z,16.20
2023-02-17T23:22:01.135Z,24.93
2023-02-17T23:24:30.199Z,23.20
2023-02-17T23:27:00.526Z,22.60
2023-02-17T23:29:30.943Z,14.10
2023-02-17T23:31:59.832Z,18.63
2023-02-17T23:34:29.456Z,16.00
2023-02-17T23:36:58.249Z,19.77
2023-02-17T23:39:27.251Z,23.30
2023-02-17T23:41:55.847Z,24.03
2023-02-17T23:44:24.370Z,21.70
2023-02-17T23:46:54.333Z,26.23
2023-02-17T23:49:22.823Z,72.73
2023-02-17T23:51:51.318Z,20.60
2023-02-17T23:54:19.796Z,5.57
2023-02-17T23:56:48.427Z,18.63
2023-02-17T23:59:16.930Z,17.83
